Time;durP1;ratioP1;P1;durP2;ratioP2;P2;SDS_P1;SDS_P2;PMS_P1;PMS_P2;Temp;Humidity;BMP_temperature;BMP_pressure;BME280_temperature;BME280_humidity;BME280_pressure;Samples;Min_cycle;Max_cycle;Signal;HPM_P1;HPM_P2
2023/12/21 00:01:07;;;;;;;0.45;0.20;;;;;;;5.70;100.00;97342.97;15296516;19;20078;-63
2023/12/21 00:06:35;;;;;;;0.30;0.30;;;;;;;5.69;100.00;97356.50;15283320;19;20025;-63
2023/12/21 00:11:59;;;;;;;0.55;0.13;;;;;;;5.69;100.00;97325.28;15296759;19;20279;-64
2023/12/21 00:17:25;;;;;;;0.20;0.20;;;;;;;5.66;100.00;97322.91;15290681;19;20093;-64
2023/12/21 00:22:52;;;;;;;0.25;0.20;;;;;;;5.69;100.00;97308.41;15295406;19;20502;-63
2023/12/21 00:28:17;;;;;;;0.20;0.20;;;;;;;5.72;100.00;97300.06;15294172;19;20039;-64
2023/12/21 00:33:41;;;;;;;0.20;0.10;;;;;;;5.75;100.00;97296.25;15293313;19;20054;-64
2023/12/21 00:39:16;;;;;;;0.75;0.20;;;;;;;5.81;100.00;97285.75;15285164;19;20082;-64
2023/12/21 00:44:46;;;;;;;0.10;0.10;;;;;;;5.85;100.00;97279.09;15291027;19;20359;-66
2023/12/21 00:50:11;;;;;;;0.10;0.10;;;;;;;5.92;100.00;97279.28;15293713;19;20086;-64
2023/12/21 00:55:38;;;;;;;0.20;0.05;;;;;;;5.96;100.00;97263.75;15289791;19;20014;-65
2023/12/21 01:01:03;;;;;;;0.25;0.10;;;;;;;5.98;100.00;97253.75;15289228;19;20006;-65
2023/12/21 01:06:28;;;;;;;0.00;0.00;;;;;;;6.00;100.00;97252.59;15286814;19;20348;-66
2023/12/21 01:11:55;;;;;;;0.10;0.10;;;;;;;6.01;100.00;97248.13;15287245;19;20395;-65
2023/12/21 01:17:20;;;;;;;0.00;0.00;;;;;;;6.03;100.00;97247.94;15282431;19;20918;-64
2023/12/21 01:22:44;;;;;;;0.40;0.10;;;;;;;6.07;100.00;97236.75;15291890;19;20483;-66
2023/12/21 01:28:11;;;;;;;0.40;0.10;;;;;;;6.15;100.00;97236.81;15288897;19;20086;-64
2023/12/21 01:33:36;;;;;;;0.10;0.10;;;;;;;6.27;100.00;97223.13;15288317;19;20021;-64
2023/12/21 01:39:08;;;;;;;0.10;0.10;;;;;;;6.36;100.00;97240.88;15286513;19;20359;-64
2023/12/21 01:44:37;;;;;;;0.15;0.10;;;;;;;6.44;100.00;97232.03;15281137;19;20363;-65
2023/12/21 01:50:01;;;;;;;0.20;0.10;;;;;;;6.46;100.00;97212.13;15290416;19;20094;-64
2023/12/21 01:55:27;;;;;;;0.10;0.10;;;;;;;6.41;100.00;97202.91;15286629;19;20018;-64
2023/12/21 02:00:55;;;;;;;0.00;0.00;;;;;;;6.37;100.00;97190.88;15284752;19;20026;-64
2023/12/21 02:06:20;;;;;;;0.00;0.00;;;;;;;6.41;100.00;97178.84;15282170;19;20422;-66
2023/12/21 02:11:45;;;;;;;0.10;0.10;;;;;;;6.38;100.00;97193.41;15288869;19;20483;-65
2023/12/21 02:17:24;;;;;;;0.10;0.10;;;;;;;6.36;100.00;97165.97;15262065;19;20025;-49
2023/12/21 02:22:51;;;;;;;0.10;0.03;;;;;;;6.32;100.00;97172.66;15286080;19;20029;-53
2023/12/21 02:28:18;;;;;;;0.10;0.00;;;;;;;6.32;100.00;97154.78;15279316;19;20018;-52
2023/12/21 02:33:43;;;;;;;0.15;0.08;;;;;;;6.36;100.00;97155.28;15286138;19;20025;-51
2023/12/21 02:39:07;;;;;;;0.05;0.05;;;;;;;6.39;100.00;97146.06;15283344;19;20018;-53
2023/12/21 02:44:35;;;;;;;0.00;0.00;;;;;;;6.43;100.00;97134.88;15281041;19;20047;-50
2023/12/21 02:49:59;;;;;;;0.15;0.10;;;;;;;6.43;100.00;97124.16;15280323;19;20830;-50
2023/12/21 02:55:24;;;;;;;0.30;0.10;;;;;;;6.51;100.00;97106.47;15281308;19;20015;-49
2023/12/21 03:00:51;;;;;;;0.00;0.00;;;;;;;6.52;100.00;97081.38;15279780;19;20023;-48
2023/12/21 03:06:17;;;;;;;0.08;0.00;;;;;;;6.53;100.00;97088.38;15282329;19;20412;-50
2023/12/21 03:11:41;;;;;;;0.00;0.00;;;;;;;6.56;100.00;97078.19;15283932;19;20931;-52
2023/12/21 03:17:09;;;;;;;0.00;0.00;;;;;;;6.57;100.00;97069.16;15278720;19;20478;-53
2023/12/21 03:22:33;;;;;;;0.30;0.10;;;;;;;6.58;100.00;97070.00;15279131;19;20081;-52
2023/12/21 03:27:59;;;;;;;0.08;0.00;;;;;;;6.60;100.00;97054.59;15279620;19;20014;-53
2023/12/21 03:33:26;;;;;;;0.28;0.10;;;;;;;6.62;100.00;97049.91;15283959;19;20010;-52
2023/12/21 03:38:51;;;;;;;0.10;0.10;;;;;;;6.65;100.00;97038.03;15278724;19;20511;-49
2023/12/21 03:44:15;;;;;;;0.00;0.00;;;;;;;6.71;100.00;97019.44;15296037;19;20805;-51
2023/12/21 03:49:43;;;;;;;0.00;0.00;;;;;;;6.77;100.00;97008.03;15295718;19;20093;-49
2023/12/21 03:55:07;;;;;;;0.00;0.00;;;;;;;6.82;100.00;97006.69;15287601;19;20042;-52
2023/12/21 04:00:32;;;;;;;0.00;0.00;;;;;;;6.85;100.00;96992.97;15291276;19;20017;-49
2023/12/21 04:05:59;;;;;;;0.10;0.00;;;;;;;6.86;100.00;96987.44;15286896;19;20015;-49
2023/12/21 04:11:24;;;;;;;0.13;0.00;;;;;;;6.88;100.00;96996.16;15287722;19;20025;-49
2023/12/21 04:16:50;;;;;;;0.00;0.00;;;;;;;6.85;100.00;96987.63;15281620;19;20025;-52
2023/12/21 04:22:18;;;;;;;0.00;0.00;;;;;;;6.86;100.00;96975.91;15282050;19;20019;-52
2023/12/21 04:27:42;;;;;;;0.20;0.10;;;;;;;6.86;100.00;96959.84;15284321;19;20086;-49
2023/12/21 04:33:07;;;;;;;0.00;0.00;;;;;;;6.86;100.00;96939.25;15294646;19;20017;-49
2023/12/21 04:38:37;;;;;;;0.20;0.10;;;;;;;6.93;100.00;96936.72;15288152;19;20018;-49
2023/12/21 04:44:04;;;;;;;0.10;0.00;;;;;;;6.94;100.00;96938.41;15291291;19;20027;-48
2023/12/21 04:49:29;;;;;;;0.08;0.00;;;;;;;6.93;100.00;96932.22;15285318;19;20006;-49
2023/12/21 04:54:57;;;;;;;0.10;0.00;;;;;;;6.96;100.00;96928.34;15289048;19;20014;-54
2023/12/21 05:00:23;;;;;;;0.60;0.10;;;;;;;6.98;100.00;96926.34;15281779;19;20090;-49
2023/12/21 05:05:49;;;;;;;0.00;0.00;;;;;;;6.98;100.00;96904.91;15287445;19;20018;-53
2023/12/21 05:11:16;;;;;;;0.47;0.10;;;;;;;7.03;100.00;96923.94;15292420;19;20022;-52
2023/12/21 05:16:42;;;;;;;0.22;0.00;;;;;;;7.02;100.00;96900.84;15286400;19;20346;-49
2023/12/21 05:22:06;;;;;;;0.00;0.00;;;;;;;7.02;100.00;96889.31;15288184;19;20021;-50
2023/12/21 05:27:27;;;;;;;0.32;0.00;;;;;;;6.99;100.00;96869.09;15287329;19;20470;-52
2023/12/21 05:32:52;;;;;;;0.10;0.10;;;;;;;6.94;100.00;96858.09;15286313;19;20045;-48
2023/12/21 05:38:16;;;;;;;0.10;0.05;;;;;;;6.90;100.00;96854.94;15285370;19;20090;-51
2023/12/21 05:43:44;;;;;;;0.00;0.00;;;;;;;6.89;100.00;96863.13;15288096;19;20014;-50
2023/12/21 05:49:08;;;;;;;0.00;0.00;;;;;;;6.89;100.00;96868.47;15289504;19;20031;-51
2023/12/21 05:54:33;;;;;;;0.00;0.00;;;;;;;6.88;100.00;96861.47;15285201;19;20015;-50
2023/12/21 06:00:00;;;;;;;0.08;0.08;;;;;;;6.88;100.00;96866.84;15284669;19;20035;-49
2023/12/21 06:05:25;;;;;;;0.00;0.00;;;;;;;6.88;100.00;96869.50;15273877;19;20018;-53
2023/12/21 06:10:49;;;;;;;0.10;0.00;;;;;;;6.85;100.00;96862.63;15286971;19;20077;-49
2023/12/21 06:16:17;;;;;;;0.00;0.00;;;;;;;6.94;100.00;96845.50;15281726;19;20017;-52
2023/12/21 06:21:41;;;;;;;0.00;0.00;;;;;;;6.98;100.00;96837.13;15283791;19;20507;-48
2023/12/21 06:27:07;;;;;;;0.03;0.03;;;;;;;6.99;100.00;96828.94;15283528;19;20024;-49
2023/12/21 06:32:34;;;;;;;0.00;0.00;;;;;;;7.01;100.00;96815.38;15287231;19;20014;-52
2023/12/21 06:37:59;;;;;;;0.00;0.00;;;;;;;7.03;100.00;96816.84;15282122;19;20016;-49
2023/12/21 06:43:24;;;;;;;0.10;0.10;;;;;;;7.07;100.00;96802.09;15284179;19;20014;-49
2023/12/21 06:48:52;;;;;;;0.77;0.00;;;;;;;7.11;100.00;96786.50;15280656;19;20082;-52
2023/12/21 06:54:17;;;;;;;0.20;0.00;;;;;;;7.16;100.00;96794.84;15285501;19;20397;-53
2023/12/21 06:59:42;;;;;;;0.00;0.00;;;;;;;7.20;100.00;96790.78;15284294;19;20090;-51
2023/12/21 07:05:09;;;;;;;0.63;0.10;;;;;;;7.21;100.00;96776.38;15277249;19;20015;-54
2023/12/21 07:10:34;;;;;;;0.08;0.08;;;;;;;7.21;100.00;96775.56;15285179;19;20017;-49
2023/12/21 07:15:58;;;;;;;0.10;0.10;;;;;;;7.19;100.00;96761.50;15283962;19;20014;-51
2023/12/21 07:21:27;;;;;;;1.35;0.10;;;;;;;7.20;100.00;96747.91;15295942;19;20021;-50
2023/12/21 07:26:51;;;;;;;0.30;0.00;;;;;;;7.22;100.00;96748.56;15293758;19;20018;-49
2023/12/21 07:32:16;;;;;;;0.00;0.00;;;;;;;7.22;100.00;96743.22;15300474;19;20011;-49
2023/12/21 07:37:44;;;;;;;0.00;0.00;;;;;;;7.20;100.00;96742.56;15287522;19;20081;-49
2023/12/21 07:43:09;;;;;;;0.00;0.00;;;;;;;7.19;100.00;96715.97;15294268;19;20016;-52
2023/12/21 07:48:33;;;;;;;0.00;0.00;;;;;;;7.15;100.00;96704.81;15291855;19;20044;-50
2023/12/21 07:54:01;;;;;;;0.10;0.10;;;;;;;7.15;100.00;96690.56;15297908;19;20010;-49
2023/12/21 07:59:25;;;;;;;0.10;0.10;;;;;;;7.15;100.00;96691.41;15295570;19;20734;-51
2023/12/21 08:04:50;;;;;;;0.00;0.00;;;;;;;7.13;100.00;96682.72;15296025;19;20029;-50
2023/12/21 08:10:18;;;;;;;0.28;0.00;;;;;;;7.13;100.00;96676.53;15292114;19;20015;-49
2023/12/21 08:15:43;;;;;;;0.10;0.10;;;;;;;7.09;100.00;96666.19;15293161;19;20017;-77
2023/12/21 08:21:07;;;;;;;0.20;0.20;;;;;;;7.08;100.00;96659.19;15300100;19;20041;-77
2023/12/21 08:26:35;;;;;;;0.00;0.00;;;;;;;7.12;100.00;96615.94;15039157;19;5001398;-77
2023/12/21 08:32:00;;;;;;;0.17;0.00;;;;;;;7.18;100.00;96609.88;15305671;19;20014;-77
2023/12/21 08:37:25;;;;;;;0.10;0.10;;;;;;;7.22;100.00;96555.75;15293237;19;20086;-78
2023/12/21 08:42:52;;;;;;;0.10;0.10;;;;;;;7.32;100.00;96563.50;15293193;19;20025;-77
2023/12/21 08:48:17;;;;;;;0.10;0.10;;;;;;;7.37;100.00;96520.91;15295069;19;20034;-77
2023/12/21 08:53:41;;;;;;;0.10;0.10;;;;;;;7.43;100.00;96494.38;15298067;19;20739;-77
2023/12/21 08:59:09;;;;;;;0.10;0.10;;;;;;;7.45;100.00;96481.66;15289316;19;20738;-77
2023/12/21 09:04:33;;;;;;;0.17;0.10;;;;;;;7.46;100.00;96430.53;15290914;19;20018;-76
2023/12/21 09:09:59;;;;;;;0.00;0.00;;;;;;;7.49;100.00;96415.94;15293600;19;20630;-77
2023/12/21 09:15:28;;;;;;;0.40;0.00;;;;;;;7.51;100.00;96381.75;15296497;19;20098;-79
2023/12/21 09:20:53;;;;;;;0.10;0.10;;;;;;;7.56;100.00;96373.97;15298585;19;20035;-80
2023/12/21 09:26:17;;;;;;;1.70;0.00;;;;;;;7.58;100.00;96369.25;15303128;19;20019;-78
2023/12/21 09:31:46;;;;;;;0.35;0.10;;;;;;;7.62;100.00;96343.69;15324286;19;20006;-78
2023/12/21 09:37:11;;;;;;;1.48;0.10;;;;;;;7.64;100.00;96324.78;15330552;19;20018;-78
2023/12/21 09:42:44;;;;;;;0.13;0.10;;;;;;;7.64;100.00;96288.06;15294223;19;20049;-77
2023/12/21 09:48:25;;;;;;;0.35;0.30;;;;;;;7.66;100.00;96267.28;15032555;19;5001606;-77
2023/12/21 09:53:53;;;;;;;0.00;0.00;;;;;;;7.69;100.00;96247.28;15292469;19;20031;-78
2023/12/21 09:59:18;;;;;;;0.45;0.00;;;;;;;7.76;100.00;96241.97;15288390;19;20607;-77
2023/12/21 10:04:48;;;;;;;0.05;0.05;;;;;;;7.85;100.00;96214.81;15294796;19;20010;-78
2023/12/21 10:10:17;;;;;;;0.00;0.00;;;;;;;7.91;100.00;96221.22;15291411;19;20487;-77
2023/12/21 10:15:42;;;;;;;0.10;0.10;;;;;;;8.02;100.00;96183.13;15293106;19;20018;-78
2023/12/21 10:21:10;;;;;;;0.00;0.00;;;;;;;8.09;100.00;96171.59;15288526;19;20014;-78
2023/12/21 10:26:43;;;;;;;0.08;0.08;;;;;;;8.16;100.00;96164.41;15291417;19;20054;-77
2023/12/21 10:32:08;;;;;;;0.00;0.00;;;;;;;8.23;100.00;96148.34;15301165;19;20014;-80
2023/12/21 10:37:39;;;;;;;0.00;0.00;;;;;;;8.26;100.00;96108.50;15297530;19;20010;-79
2023/12/21 10:43:04;;;;;;;0.00;0.00;;;;;;;8.29;100.00;96148.31;15295535;19;20034;-80
2023/12/21 10:48:33;;;;;;;0.20;0.20;;;;;;;8.28;100.00;96124.38;15297101;19;20086;-77
2023/12/21 10:54:02;;;;;;;0.00;0.00;;;;;;;8.24;100.00;96099.00;15297753;19;20094;-79
2023/12/21 10:59:29;;;;;;;0.20;0.10;;;;;;;8.21;100.00;96121.69;15327506;19;20017;-78
2023/12/21 11:04:54;;;;;;;0.30;0.10;;;;;;;8.20;100.00;96101.25;15352186;19;20026;-78
2023/12/21 11:10:23;;;;;;;0.00;0.00;;;;;;;8.22;100.00;96096.53;15315399;19;20035;-78
2023/12/21 11:15:47;;;;;;;0.00;0.00;;;;;;;8.25;100.00;96074.69;15290363;19;20015;-78
2023/12/21 11:21:14;;;;;;;0.00;0.00;;;;;;;8.25;100.00;96063.09;15290543;19;20022;-77
2023/12/21 11:26:43;;;;;;;0.00;0.00;;;;;;;8.23;100.00;96066.00;14776664;19;10000251;-78
2023/12/21 11:32:08;;;;;;;0.08;0.00;;;;;;;8.25;100.00;96055.91;15293717;19;20007;-77
2023/12/21 11:37:35;;;;;;;0.08;0.08;;;;;;;8.31;100.00;96022.88;15291843;19;20110;-79
2023/12/21 11:43:05;;;;;;;0.80;0.05;;;;;;;8.38;100.00;95989.88;15289470;19;20006;-77
2023/12/21 11:48:29;;;;;;;0.00;0.00;;;;;;;8.43;100.00;95990.06;15282238;19;20074;-78
2023/12/21 11:53:54;;;;;;;0.08;0.08;;;;;;;8.45;100.00;95971.91;15031220;19;5001295;-78
2023/12/21 11:59:21;;;;;;;0.10;0.10;;;;;;;8.43;100.00;95968.59;15278416;19;20495;-78
2023/12/21 12:04:52;;;;;;;0.00;0.00;;;;;;;8.42;100.00;95934.75;15296848;19;20017;-77
2023/12/21 12:10:18;;;;;;;0.00;0.00;;;;;;;8.34;100.00;95933.13;15299603;19;20022;-79
2023/12/21 12:15:47;;;;;;;0.00;0.00;;;;;;;8.35;100.00;95921.34;15296215;19;20365;-78
2023/12/21 12:21:16;;;;;;;0.10;0.10;;;;;;;8.36;100.00;95930.22;15303037;19;20015;-80
2023/12/21 12:26:43;;;;;;;0.10;0.10;;;;;;;8.38;100.00;95912.09;15309734;19;20047;-80
2023/12/21 12:32:14;;;;;;;0.00;0.00;;;;;;;8.45;100.00;95883.38;15308916;19;20016;-79
2023/12/21 12:37:39;;;;;;;0.00;0.00;;;;;;;8.51;100.00;95858.41;15355205;19;20075;-79
2023/12/21 12:43:09;;;;;;;0.00;0.00;;;;;;;8.54;100.00;95839.19;15310128;19;20027;-81
2023/12/21 12:48:38;;;;;;;0.10;0.10;;;;;;;8.63;100.00;95821.84;15297685;19;20441;-82
2023/12/21 12:54:10;;;;;;;0.00;0.00;;;;;;;8.70;100.00;95831.72;15305208;19;20412;-80
2023/12/21 12:59:36;;;;;;;0.07;0.03;;;;;;;8.75;100.00;95805.88;15299951;19;20485;-79
2023/12/21 13:05:05;;;;;;;0.25;0.10;;;;;;;8.81;100.00;95808.75;15297886;19;20255;-81
2023/12/21 13:10:30;;;;;;;0.00;0.00;;;;;;;8.79;100.00;95784.78;15302810;19;20011;-81
2023/12/21 13:15:55;;;;;;;0.00;0.00;;;;;;;8.83;100.00;95748.44;15304365;19;20078;-80
2023/12/21 13:21:22;;;;;;;0.30;0.10;;;;;;;8.86;100.00;95748.00;15319434;19;20045;-80
2023/12/21 13:26:49;;;;;;;0.88;0.08;;;;;;;8.87;100.00;95776.50;15344728;19;20026;-81
2023/12/21 13:32:15;;;;;;;0.00;0.00;;;;;;;8.89;100.00;95709.97;15310369;19;20010;-81
2023/12/21 13:37:52;;;;;;;0.15;0.10;;;;;;;8.92;100.00;95709.53;15308701;19;20022;-79
2023/12/21 13:43:18;;;;;;;0.10;0.10;;;;;;;8.94;100.00;95682.47;15314425;19;20071;-80
2023/12/21 13:48:43;;;;;;;0.43;0.00;;;;;;;8.95;100.00;95673.38;15308270;19;20430;-80
2023/12/21 13:54:10;;;;;;;0.08;0.08;;;;;;;8.97;100.00;95700.03;15303828;19;20018;-76
2023/12/21 13:59:36;;;;;;;0.00;0.00;;;;;;;9.06;100.00;95678.03;15295041;19;20033;-78
2023/12/21 14:05:00;;;;;;;0.00;0.00;;;;;;;9.17;100.00;95700.69;15288472;19;20017;-78
2023/12/21 14:10:28;;;;;;;0.57;0.00;;;;;;;9.21;100.00;95650.84;15286885;19;20010;-78
2023/12/21 14:15:54;;;;;;;0.10;0.10;;;;;;;9.28;100.00;95639.22;15290967;19;20366;-78
2023/12/21 14:21:19;;;;;;;0.00;0.00;;;;;;;9.29;100.00;95640.88;15291797;19;20011;-77
2023/12/21 14:26:46;;;;;;;0.28;0.00;;;;;;;9.35;100.00;95648.06;15287999;19;20026;-78
2023/12/21 14:32:11;;;;;;;0.00;0.00;;;;;;;9.26;100.00;95644.81;15292823;19;20006;-78
2023/12/21 14:37:36;;;;;;;0.00;0.00;;;;;;;9.15;100.00;95670.53;15284238;19;20019;-79
2023/12/21 14:43:04;;;;;;;0.10;0.10;;;;;;;9.20;100.00;95635.78;15291239;19;20022;-79
2023/12/21 14:48:28;;;;;;;0.88;0.13;;;;;;;9.17;100.00;95646.16;15288247;19;20046;-78
2023/12/21 14:53:53;;;;;;;0.10;0.00;;;;;;;9.18;100.00;95635.19;15291503;19;20015;-77
2023/12/21 14:59:21;;;;;;;0.32;0.10;;;;;;;9.28;100.00;95620.41;15289230;19;20062;-78
2023/12/21 15:04:46;;;;;;;0.20;0.10;;;;;;;9.31;100.00;95609.22;15286456;19;20018;-79
2023/12/21 15:10:11;;;;;;;0.00;0.00;;;;;;;9.35;100.00;95595.13;15282885;19;20380;-77
2023/12/21 15:15:39;;;;;;;0.20;0.10;;;;;;;9.45;100.00;95613.44;15288586;19;20814;-79
2023/12/21 15:21:03;;;;;;;0.13;0.08;;;;;;;9.46;100.00;95628.50;15298815;19;20070;-77
2023/12/21 15:26:30;;;;;;;0.30;0.10;;;;;;;9.61;100.00;95577.06;15287118;19;20080;-78
2023/12/21 15:31:57;;;;;;;0.20;0.00;;;;;;;9.70;100.00;95586.47;15293161;19;20014;-79
2023/12/21 15:37:22;;;;;;;0.10;0.10;;;;;;;9.78;100.00;95557.59;15295944;19;20070;-80
2023/12/21 15:42:48;;;;;;;0.00;0.00;;;;;;;9.72;100.00;95564.72;15334186;19;20015;-78
2023/12/21 15:48:16;;;;;;;0.00;0.00;;;;;;;9.71;100.00;95541.56;15334001;19;20477;-78
2023/12/21 15:53:49;;;;;;;0.05;0.00;;;;;;;9.50;100.00;95545.56;15379497;19;20022;-78
2023/12/21 15:59:13;;;;;;;0.10;0.10;;;;;;;9.01;100.00;95566.97;15330343;19;20028;-75
2023/12/21 16:04:41;;;;;;;5.82;0.30;;;;;;;8.66;100.00;95613.94;15302571;19;20014;-79
2023/12/21 16:10:06;;;;;;;0.63;0.20;;;;;;;8.12;100.00;95629.53;15307327;19;20014;-78
2023/12/21 16:15:31;;;;;;;1.05;0.20;;;;;;;7.83;100.00;95696.03;15320144;19;20015;-79
2023/12/21 16:21:00;;;;;;;1.20;0.30;;;;;;;7.70;100.00;95697.72;15318051;19;20010;-78
2023/12/21 16:26:28;;;;;;;1.10;0.30;;;;;;;7.58;100.00;95702.13;15325238;19;20019;-81
2023/12/21 16:31:55;;;;;;;2.80;0.47;;;;;;;7.44;100.00;95720.06;15333146;19;20029;-81
2023/12/21 16:37:25;;;;;;;2.50;0.30;;;;;;;7.18;100.00;95763.75;15057313;19;5001278;-79
2023/12/21 16:42:50;;;;;;;1.83;0.50;;;;;;;6.85;100.00;95765.34;15306087;19;20090;-79
2023/12/21 16:48:17;;;;;;;0.20;0.20;;;;;;;6.69;100.00;95749.69;15298185;19;20504;-80
2023/12/21 16:53:45;;;;;;;0.68;0.20;;;;;;;6.57;100.00;95810.97;15303395;19;20033;-81
2023/12/21 16:59:10;;;;;;;0.75;0.30;;;;;;;6.56;100.00;95787.91;15305347;19;20090;-80
2023/12/21 17:04:35;;;;;;;0.88;0.30;;;;;;;6.61;100.00;95806.88;15310185;19;20070;-82
2023/12/21 17:10:04;;;;;;;0.80;0.30;;;;;;;6.70;100.00;95800.31;15302968;19;20025;-80
2023/12/21 17:15:36;;;;;;;3.03;0.60;;;;;;;6.86;100.00;95828.53;15335437;19;20395;-82
2023/12/21 17:21:00;;;;;;;1.27;0.40;;;;;;;6.71;100.00;95810.00;15316806;19;20041;-79
2023/12/21 17:26:28;;;;;;;3.85;0.52;;;;;;;6.51;100.00;95910.75;15291922;19;20033;-81
2023/12/21 17:31:52;;;;;;;2.28;0.40;;;;;;;6.10;100.00;95897.13;15308144;19;20574;-79
2023/12/21 17:37:17;;;;;;;3.85;0.70;;;;;;;5.73;100.00;95914.28;15296221;19;20014;-79
2023/12/21 17:42:44;;;;;;;1.90;0.75;;;;;;;5.55;100.00;95846.97;15304849;19;20367;-77
2023/12/21 17:48:09;;;;;;;1.48;0.52;;;;;;;5.36;100.00;95874.31;15294464;19;20021;-79
2023/12/21 17:53:34;;;;;;;4.65;0.80;;;;;;;5.27;100.00;95878.13;15300935;19;20086;-81
2023/12/21 17:59:04;;;;;;;3.00;0.57;;;;;;;5.23;100.00;95933.72;15034536;19;5001250;-79
2023/12/21 18:04:30;;;;;;;0.87;0.50;;;;;;;5.22;100.00;95977.44;15291444;19;20105;-79
2023/12/21 18:09:54;;;;;;;0.98;0.50;;;;;;;5.20;100.00;95974.13;15289947;19;20625;-78
2023/12/21 18:15:21;;;;;;;1.08;0.40;;;;;;;5.12;100.00;95958.25;15295170;19;20011;-80
2023/12/21 18:20:53;;;;;;;1.85;0.30;;;;;;;5.02;100.00;95964.72;15295714;19;20074;-79
2023/12/21 18:26:18;;;;;;;1.20;0.13;;;;;;;4.72;100.00;95971.94;15290924;19;20481;-79
2023/12/21 18:31:46;;;;;;;1.50;0.30;;;;;;;4.46;100.00;96005.19;15300740;19;20011;-80
2023/12/21 18:37:10;;;;;;;2.08;0.43;;;;;;;4.24;100.00;96020.22;15305475;19;20014;-79
2023/12/21 18:42:36;;;;;;;2.97;0.88;;;;;;;4.03;100.00;96043.06;15340568;19;20006;-80
2023/12/21 18:48:04;;;;;;;7.03;0.90;;;;;;;3.86;100.00;96084.97;15290926;19;20085;-79
2023/12/21 18:53:29;;;;;;;3.60;0.82;;;;;;;3.75;100.00;96058.75;15287710;19;20029;-78
2023/12/21 18:58:55;;;;;;;3.22;0.80;;;;;;;3.66;100.00;96008.22;15282470;19;20015;-78
2023/12/21 19:04:22;;;;;;;5.63;1.13;;;;;;;3.54;100.00;95996.34;15285191;19;20479;-77
2023/12/21 19:09:46;;;;;;;8.90;4.68;;;;;;;3.42;100.00;96037.66;15279601;19;20073;-79
2023/12/21 19:15:12;;;;;;;5.78;1.00;;;;;;;3.43;100.00;96071.25;15296230;19;20486;-78
2023/12/21 19:20:47;;;;;;;5.45;1.10;;;;;;;3.43;100.00;96079.25;15289588;19;20427;-78
2023/12/21 19:26:13;;;;;;;3.50;1.00;;;;;;;3.37;100.00;96054.97;15294697;19;20114;-81
2023/12/21 19:31:38;;;;;;;3.25;0.90;;;;;;;3.42;100.00;96069.59;15297454;19;20498;-79
2023/12/21 19:37:07;;;;;;;4.93;1.27;;;;;;;3.40;100.00;96056.47;15300059;19;20024;-81
2023/12/21 19:42:31;;;;;;;8.15;1.40;;;;;;;3.35;100.00;96075.59;15313622;19;20488;-80
2023/12/21 19:47:55;;;;;;;8.45;1.50;;;;;;;3.35;100.00;96058.81;15292960;19;20025;-78
2023/12/21 19:53:23;;;;;;;6.07;1.40;;;;;;;3.32;100.00;95980.19;15296947;19;20016;-77
2023/12/21 19:58:50;;;;;;;7.65;1.67;;;;;;;3.34;100.00;96004.78;15294682;19;20029;-78
2023/12/21 20:04:15;;;;;;;5.35;1.52;;;;;;;3.35;100.00;96006.41;15290336;19;20583;-80
2023/12/21 20:09:43;;;;;;;8.23;1.30;;;;;;;3.34;100.00;96010.09;15290227;19;20014;-76
2023/12/21 20:15:08;;;;;;;6.38;1.48;;;;;;;3.37;100.00;95998.28;15295915;19;20035;-75
2023/12/21 20:20:41;;;;;;;6.32;1.30;;;;;;;3.43;100.00;95996.75;15289698;19;20516;-75
2023/12/21 20:26:15;;;;;;;4.43;1.20;;;;;;;3.53;100.00;95981.38;15281913;19;20023;-65
2023/12/21 20:31:39;;;;;;;8.52;1.40;;;;;;;3.63;100.00;96013.91;15283803;19;20029;-65
2023/12/21 20:37:05;;;;;;;4.22;1.08;;;;;;;3.69;100.00;96018.53;15264599;19;20487;-65
2023/12/21 20:42:32;;;;;;;3.83;1.13;;;;;;;3.76;100.00;96018.66;15286268;19;20024;-65
2023/12/21 20:47:57;;;;;;;5.10;0.90;;;;;;;3.80;100.00;96035.09;15288854;19;20310;-65
2023/12/21 20:53:22;;;;;;;5.53;1.35;;;;;;;3.92;100.00;96070.13;15290699;19;20017;-66
2023/12/21 20:58:49;;;;;;;6.77;1.63;;;;;;;3.97;100.00;96041.94;15284559;19;20029;-53
2023/12/21 21:04:14;;;;;;;5.65;1.48;;;;;;;4.06;100.00;96013.41;15261085;19;20631;-52
2023/12/21 21:09:38;;;;;;;5.75;1.48;;;;;;;4.09;100.00;96028.19;15279635;19;20388;-56
2023/12/21 21:15:06;;;;;;;8.80;1.50;;;;;;;4.11;100.00;96020.84;15282633;19;20037;-53
2023/12/21 21:20:30;;;;;;;7.20;1.63;;;;;;;4.16;100.00;95981.19;15280361;19;20402;-53
2023/12/21 21:25:55;;;;;;;6.72;1.83;;;;;;;4.24;100.00;96021.06;15276967;19;20109;-53
2023/12/21 21:31:25;;;;;;;10.73;2.22;;;;;;;4.26;100.00;96007.56;15279152;19;20017;-55
2023/12/21 21:36:50;;;;;;;9.00;2.20;;;;;;;4.24;100.00;96009.56;15275318;19;20010;-52
2023/12/21 21:42:15;;;;;;;11.45;2.10;;;;;;;4.18;100.00;96016.44;15280011;19;20022;-51
2023/12/21 21:47:42;;;;;;;15.02;2.78;;;;;;;4.19;100.00;96039.44;15278068;19;20011;-53
2023/12/21 21:53:07;;;;;;;13.98;2.70;;;;;;;4.23;100.00;96040.72;15278630;19;20010;-55
2023/12/21 21:58:34;;;;;;;12.38;2.50;;;;;;;4.27;100.00;96052.69;15279961;19;20350;-52
2023/12/21 22:04:09;;;;;;;11.60;2.67;;;;;;;4.30;100.00;96084.28;15277118;19;20015;-55
2023/12/21 22:09:34;;;;;;;11.95;2.70;;;;;;;4.35;100.00;96085.59;15271502;19;20024;-54
2023/12/21 22:14:58;;;;;;;11.75;2.58;;;;;;;4.34;100.00;96092.78;15280238;19;20017;-53
2023/12/21 22:20:25;;;;;;;13.02;3.10;;;;;;;4.28;100.00;96101.47;15277930;19;20018;-53
2023/12/21 22:25:50;;;;;;;16.75;2.92;;;;;;;4.12;100.00;96137.09;15274303;19;20020;-55
2023/12/21 22:31:15;;;;;;;14.77;2.72;;;;;;;3.87;100.00;96153.22;15276968;19;20025;-52
2023/12/21 22:36:43;;;;;;;15.02;3.40;;;;;;;3.51;100.00;96143.94;15278009;19;20463;-54
2023/12/21 22:42:09;;;;;;;14.15;2.72;;;;;;;3.27;100.00;96152.81;15269583;19;20526;-57
2023/12/21 22:47:33;;;;;;;10.88;2.35;;;;;;;3.29;100.00;96169.44;15273211;19;20082;-54
2023/12/21 22:53:00;;;;;;;13.15;2.40;;;;;;;3.37;100.00;96177.38;15275271;19;20074;-55
2023/12/21 22:58:25;;;;;;;12.85;2.45;;;;;;;3.49;100.00;96187.66;15276319;19;20020;-55
2023/12/21 23:03:56;;;;;;;10.13;2.08;;;;;;;3.63;100.00;96184.28;15273238;19;20045;-55
2023/12/21 23:09:25;;;;;;;13.50;2.50;;;;;;;3.73;100.00;96180.59;15275262;19;20016;-52
2023/12/21 23:14:49;;;;;;;11.45;2.22;;;;;;;3.79;100.00;96174.56;15271484;19;20598;-56
2023/12/21 23:20:14;;;;;;;7.15;1.92;;;;;;;3.78;100.00;96197.69;15275717;19;20018;-52
2023/12/21 23:25:41;;;;;;;10.02;2.40;;;;;;;3.74;100.00;96174.25;15275305;19;20017;-56
2023/12/21 23:31:06;;;;;;;9.13;2.05;;;;;;;3.73;100.00;96199.22;15274252;19;20364;-53
2023/12/21 23:36:30;;;;;;;12.73;2.67;;;;;;;3.78;100.00;96196.88;15273683;19;20015;-55
2023/12/21 23:41:57;;;;;;;11.50;2.30;;;;;;;3.84;100.00;96244.97;15272277;19;20471;-53
2023/12/21 23:47:22;;;;;;;10.25;2.53;;;;;;;3.93;100.00;96157.00;15266130;19;20362;-55
2023/12/21 23:52:47;;;;;;;12.95;2.55;;;;;;;3.96;100.00;96165.47;15271924;19;20014;-51
2023/12/21 23:58:14;;;;;;;15.30;2.78;;;;;;;4.04;100.00;96179.78;15280860;19;20400;-53
